Time;durP1;ratioP1;P1;durP2;ratioP2;P2;SDS_P1;SDS_P2;PMS_P1;PMS_P2;Temp;Humidity;BMP_temperature;BMP_pressure;BME280_temperature;BME280_humidity;BME280_pressure;Samples;Min_cycle;Max_cycle;Signal;HPM_P1;HPM_P2
2022/12/21 00:01:46;;;;;;;27.20;12.87;;;;;;;;;;4913933;29;20031;-75
2022/12/21 00:04:12;;;;;;;29.53;12.83;;;;;;;;;;4946088;29;20048;-74
2022/12/21 00:06:38;;;;;;;35.67;13.47;;;;;;;;;;4928649;29;20558;-75
2022/12/21 00:09:05;;;;;;;26.97;13.10;;;;;;;;;;4956345;28;20047;-74
2022/12/21 00:11:32;;;;;;;27.80;12.30;;;;;;;;;;4924539;29;20031;-74
2022/12/21 00:13:59;;;;;;;29.53;14.03;;;;;;;;;;4916498;29;20058;-75
2022/12/21 00:16:25;;;;;;;30.10;13.50;;;;;;;;;;4949585;28;20077;-74
2022/12/21 00:18:51;;;;;;;33.10;13.93;;;;;;;;;;4931966;29;20054;-75
2022/12/21 00:21:18;;;;;;;28.97;13.70;;;;;;;;;;4932478;29;20038;-75
2022/12/21 00:23:44;;;;;;;37.73;14.07;;;;;;;;;;4932721;29;20039;-74
2022/12/21 00:26:11;;;;;;;33.07;13.63;;;;;;;;;;4948863;29;20126;-74
2022/12/21 00:28:38;;;;;;;36.33;13.20;;;;;;;;;;4933486;29;20042;-74
2022/12/21 00:31:07;;;;;;;39.93;14.27;;;;;;;;;;4917428;29;20775;-73
2022/12/21 00:33:33;;;;;;;32.00;14.30;;;;;;;;;;4932707;29;20106;-75
2022/12/21 00:35:59;;;;;;;28.37;12.70;;;;;;;;;;4932616;29;20129;-74
2022/12/21 00:38:27;;;;;;;27.97;13.93;;;;;;;;;;4932853;29;20066;-74
2022/12/21 00:41:03;;;;;;;27.33;12.40;;;;;;;;;;4915383;29;20077;-73
2022/12/21 00:43:30;;;;;;;31.50;13.63;;;;;;;;;;4932398;29;21125;-74
2022/12/21 00:45:56;;;;;;;34.87;15.23;;;;;;;;;;4930753;29;20046;-74
2022/12/21 00:48:21;;;;;;;32.77;13.53;;;;;;;;;;4933182;29;20035;-73
2022/12/21 00:50:47;;;;;;;31.03;13.47;;;;;;;;;;4931488;29;20067;-74
2022/12/21 00:53:14;;;;;;;29.70;13.53;;;;;;;;;;4916246;29;20126;-73
2022/12/21 00:55:40;;;;;;;31.77;13.67;;;;;;;;;;4948463;29;20101;-72
2022/12/21 00:58:06;;;;;;;30.63;13.67;;;;;;;;;;4930932;29;20035;-73
2022/12/21 01:00:31;;;;;;;30.70;13.07;;;;;;;;;;4916480;29;20043;-72
2022/12/21 01:02:57;;;;;;;35.10;14.40;;;;;;;;;;4933325;29;20134;-74
2022/12/21 01:05:23;;;;;;;31.40;13.63;;;;;;;;;;4947760;29;20062;-74
2022/12/21 01:07:49;;;;;;;32.70;13.33;;;;;;;;;;4932246;29;20508;-74
2022/12/21 01:10:14;;;;;;;30.80;12.17;;;;;;;;;;4948216;29;20039;-74
2022/12/21 01:12:40;;;;;;;33.00;13.37;;;;;;;;;;4915998;29;20031;-74
2022/12/21 01:15:06;;;;;;;30.07;12.80;;;;;;;;;;4931428;29;20449;-74
2022/12/21 01:17:35;;;;;;;32.00;13.47;;;;;;;;;;4949211;28;20508;-74
2022/12/21 01:20:01;;;;;;;31.00;13.43;;;;;;;;;;4916166;29;20035;-74
2022/12/21 01:22:29;;;;;;;30.23;13.10;;;;;;;;;;4911934;29;20046;-74
2022/12/21 01:24:54;;;;;;;35.90;13.67;;;;;;;;;;4931437;29;20043;-76
2022/12/21 01:27:20;;;;;;;26.63;13.00;;;;;;;;;;4916104;29;20027;-75
2022/12/21 01:29:46;;;;;;;29.83;12.73;;;;;;;;;;4931632;29;20050;-75
2022/12/21 01:32:11;;;;;;;31.57;13.10;;;;;;;;;;4931145;29;20027;-75
2022/12/21 01:34:37;;;;;;;30.90;13.40;;;;;;;;;;4915072;29;20085;-76
2022/12/21 01:37:05;;;;;;;28.70;12.73;;;;;;;;;;4917579;29;20066;-76
2022/12/21 01:39:30;;;;;;;29.03;13.60;;;;;;;;;;4949066;29;20078;-76
2022/12/21 01:41:56;;;;;;;31.53;13.40;;;;;;;;;;4933173;29;20027;-77
2022/12/21 01:44:40;;;;;;;34.00;13.47;;;;;;;;;;4917287;29;20050;-77
2022/12/21 01:47:09;;;;;;;35.63;13.47;;;;;;;;;;4934152;29;20478;-76
2022/12/21 01:49:35;;;;;;;37.60;13.73;;;;;;;;;;4951911;28;20047;-78
2022/12/21 01:52:11;;;;;;;33.70;14.40;;;;;;;;;;4935215;29;20043;-78
2022/12/21 01:54:42;;;;;;;29.83;13.13;;;;;;;;;;4935429;29;20385;-76
2022/12/21 01:57:10;;;;;;;34.57;14.17;;;;;;;;;;4950234;29;20043;-78
2022/12/21 01:59:37;;;;;;;33.23;14.50;;;;;;;;;;4950742;29;20553;-78
2022/12/21 02:02:06;;;;;;;37.40;14.47;;;;;;;;;;4935192;29;20035;-78
2022/12/21 02:04:32;;;;;;;38.93;15.80;;;;;;;;;;4950683;29;20055;-77
2022/12/21 02:06:58;;;;;;;32.57;13.77;;;;;;;;;;4935600;29;20035;-77
2022/12/21 02:09:25;;;;;;;37.00;14.67;;;;;;;;;;4950026;29;20062;-76
2022/12/21 02:11:52;;;;;;;36.07;14.80;;;;;;;;;;4917747;29;20117;-76
2022/12/21 02:14:18;;;;;;;35.80;14.90;;;;;;;;;;4933624;29;20501;-76
2022/12/21 02:17:13;;;;;;;33.77;14.73;;;;;;;;;;4923152;29;20035;-76
2022/12/21 02:19:50;;;;;;;37.77;14.13;;;;;;;;;;4917587;29;20082;-76
2022/12/21 02:22:22;;;;;;;32.07;14.10;;;;;;;;;;4933286;29;20039;-75
2022/12/21 02:24:56;;;;;;;33.00;14.23;;;;;;;;;;4917658;29;20043;-77
2022/12/21 02:27:48;;;;;;;34.03;14.43;;;;;;;;;;4937645;29;20529;-76
2022/12/21 02:30:21;;;;;;;31.13;13.57;;;;;;;;;;4908553;29;20448;-77
2022/12/21 02:33:02;;;;;;;35.30;13.93;;;;;;;;;;4938909;29;20071;-76
2022/12/21 02:35:28;;;;;;;;;;;;;;;;;;4955293;29;20051;-76
2022/12/21 02:38:00;;;;;;;31.50;13.30;;;;;;;;;;4939063;29;19914;-78
2022/12/21 02:40:44;;;;;;;30.87;14.47;;;;;;;;;;4923044;29;20145;-78
2022/12/21 02:46:22;;;;;;;33.10;13.80;;;;;;;;;;4955804;28;20469;-78
2022/12/21 02:48:56;;;;;;;29.40;13.20;;;;;;;;;;4922943;29;20031;-76
2022/12/21 02:51:28;;;;;;;34.40;14.87;;;;;;;;;;4922905;29;20031;-76
2022/12/21 02:53:54;;;;;;;33.83;14.13;;;;;;;;;;4938999;29;20363;-76
2022/12/21 02:56:20;;;;;;;39.00;16.43;;;;;;;;;;4954196;29;20105;-76
2022/12/21 02:58:46;;;;;;;32.97;14.80;;;;;;;;;;4922613;29;20131;-76
2022/12/21 03:01:35;;;;;;;35.10;14.55;;;;;;;;;;4922988;29;20101;-76
2022/12/21 03:04:01;;;;;;;35.27;15.10;;;;;;;;;;4922314;29;20061;-77
2022/12/21 03:06:47;;;;;;;33.67;14.23;;;;;;;;;;4937906;29;20461;-78
2022/12/21 03:09:32;;;;;;;29.93;14.03;;;;;;;;;;4922952;29;20043;-76
2022/12/21 03:12:17;;;;;;;29.73;13.47;;;;;;;;;;4922561;29;20037;-77
2022/12/21 03:14:51;;;;;;;35.17;14.73;;;;;;;;;;4938364;29;20039;-77
2022/12/21 03:17:43;;;;;;;29.37;13.47;;;;;;;;;;4937942;29;20042;-77
2022/12/21 03:20:21;;;;;;;32.03;14.57;;;;;;;;;;4935414;29;20425;-77
2022/12/21 03:22:47;;;;;;;32.77;14.70;;;;;;;;;;4938287;29;20086;-77
2022/12/21 03:25:12;;;;;;;27.47;13.27;;;;;;;;;;4922848;29;20031;-78
2022/12/21 03:27:44;;;;;;;38.13;15.80;;;;;;;;;;4922362;29;20097;-77
2022/12/21 03:30:13;;;;;;;36.80;15.80;;;;;;;;;;4937927;29;20050;-77
2022/12/21 03:32:41;;;;;;;35.70;15.87;;;;;;;;;;4937821;29;20039;-77
2022/12/21 03:35:12;;;;;;;36.40;15.90;;;;;;;;;;4921842;29;20054;-78
2022/12/21 03:37:39;;;;;;;29.87;14.67;;;;;;;;;;4921582;29;20059;-78
2022/12/21 03:40:24;;;;;;;36.37;14.73;;;;;;;;;;4937652;29;20035;-77
2022/12/21 03:42:54;;;;;;;37.73;16.10;;;;;;;;;;4921846;29;20065;-77
2022/12/21 03:45:28;;;;;;;37.90;15.00;;;;;;;;;;4937467;28;20039;-78
2022/12/21 03:48:01;;;;;;;32.00;14.63;;;;;;;;;;4937484;29;20039;-78
2022/12/21 03:50:30;;;;;;;36.50;14.70;;;;;;;;;;4921257;29;20046;-76
2022/12/21 03:53:22;;;;;;;35.70;15.10;;;;;;;;;;4921384;29;20043;-76
2022/12/21 03:55:48;;;;;;;33.33;14.77;;;;;;;;;;4899482;29;20101;-77
2022/12/21 03:58:15;;;;;;;30.60;14.43;;;;;;;;;;4937505;29;20039;-77
2022/12/21 04:00:51;;;;;;;32.23;14.00;;;;;;;;;;4937822;29;20044;-77
2022/12/21 04:03:26;;;;;;;30.33;14.50;;;;;;;;;;4953129;29;20412;-77
2022/12/21 04:06:10;;;;;;;29.60;14.33;;;;;;;;;;4937278;29;20457;-77
2022/12/21 04:08:37;;;;;;;37.53;14.80;;;;;;;;;;4921780;29;20042;-78
2022/12/21 04:11:03;;;;;;;42.47;14.40;;;;;;;;;;4937543;29;20043;-76
2022/12/21 04:13:28;;;;;;;38.03;15.27;;;;;;;;;;4921381;29;20119;-77
2022/12/21 04:16:03;;;;;;;34.73;14.90;;;;;;;;;;4921123;29;20062;-76
2022/12/21 04:21:14;;;;;;;32.67;14.83;;;;;;;;;;4936854;29;20054;-75
2022/12/21 04:29:08;;;;;;;32.97;14.67;;;;;;;;;;4952443;29;20513;-76
2022/12/21 04:31:34;;;;;;;36.00;15.43;;;;;;;;;;4936829;29;20063;-75
2022/12/21 04:33:59;;;;;;;32.57;14.40;;;;;;;;;;4936442;29;20141;-74
2022/12/21 04:39:11;;;;;;;36.13;15.13;;;;;;;;;;4943793;29;20035;-73
2022/12/21 04:41:37;;;;;;;34.30;15.47;;;;;;;;;;4947922;29;20043;-75
2022/12/21 04:44:03;;;;;;;34.20;15.83;;;;;;;;;;4953251;28;20053;-77
2022/12/21 04:46:28;;;;;;;35.63;16.37;;;;;;;;;;4936424;29;20039;-76
2022/12/21 04:48:54;;;;;;;38.90;15.70;;;;;;;;;;4951437;28;20035;-79
2022/12/21 04:51:21;;;;;;;33.37;14.77;;;;;;;;;;4952170;29;20047;-79
2022/12/21 04:53:48;;;;;;;41.27;15.40;;;;;;;;;;4933453;28;20035;-70
2022/12/21 04:56:14;;;;;;;34.57;14.07;;;;;;;;;;4934926;29;20038;-71
2022/12/21 04:58:40;;;;;;;33.60;14.80;;;;;;;;;;4950847;29;20090;-75
2022/12/21 05:01:09;;;;;;;41.00;16.67;;;;;;;;;;4949626;29;20061;-72
2022/12/21 05:03:35;;;;;;;52.37;21.33;;;;;;;;;;4916980;29;20047;-72
2022/12/21 05:06:00;;;;;;;43.30;18.20;;;;;;;;;;4949216;29;20058;-73
2022/12/21 05:08:26;;;;;;;41.97;17.80;;;;;;;;;;4934104;29;20042;-76
2022/12/21 05:10:52;;;;;;;41.23;18.17;;;;;;;;;;4951559;28;20411;-76
2022/12/21 05:13:17;;;;;;;35.20;16.67;;;;;;;;;;4950628;29;20482;-75
2022/12/21 05:15:43;;;;;;;42.07;16.10;;;;;;;;;;4934875;29;20058;-74
2022/12/21 05:18:11;;;;;;;32.63;15.77;;;;;;;;;;4919804;29;20477;-71
2022/12/21 05:20:38;;;;;;;37.70;15.40;;;;;;;;;;4952215;29;20497;-74
2022/12/21 05:23:04;;;;;;;38.23;15.50;;;;;;;;;;4919229;29;20055;-71
2022/12/21 05:25:29;;;;;;;36.10;15.40;;;;;;;;;;4919021;29;20050;-66
2022/12/21 05:27:55;;;;;;;36.33;14.63;;;;;;;;;;4951737;28;20516;-66
2022/12/21 05:30:20;;;;;;;33.33;13.93;;;;;;;;;;4934630;29;20466;-66
2022/12/21 05:32:46;;;;;;;40.13;15.57;;;;;;;;;;4918935;29;20035;-65
2022/12/21 05:35:12;;;;;;;32.93;14.23;;;;;;;;;;4935331;29;20047;-65
2022/12/21 05:37:38;;;;;;;33.57;14.77;;;;;;;;;;4935247;29;20043;-65
2022/12/21 05:40:04;;;;;;;35.97;16.57;;;;;;;;;;4919056;29;20094;-65
2022/12/21 05:42:31;;;;;;;43.23;17.90;;;;;;;;;;4919016;29;20378;-65
2022/12/21 05:44:56;;;;;;;35.70;16.40;;;;;;;;;;4919199;29;20463;-65
2022/12/21 05:47:22;;;;;;;43.00;18.30;;;;;;;;;;4934734;29;20039;-65
2022/12/21 05:49:48;;;;;;;44.20;17.33;;;;;;;;;;4918945;29;20086;-65
2022/12/21 05:52:14;;;;;;;40.50;16.60;;;;;;;;;;4934141;29;20065;-65
2022/12/21 05:54:39;;;;;;;39.33;15.60;;;;;;;;;;4918616;29;20071;-66
2022/12/21 05:57:05;;;;;;;43.20;15.93;;;;;;;;;;4919009;29;20077;-66
2022/12/21 05:59:31;;;;;;;36.23;15.40;;;;;;;;;;4918896;29;20027;-66
2022/12/21 06:01:56;;;;;;;36.03;15.63;;;;;;;;;;4922379;29;20043;-65
2022/12/21 06:04:22;;;;;;;33.60;15.90;;;;;;;;;;4938657;29;20043;-66
2022/12/21 06:06:48;;;;;;;35.10;15.23;;;;;;;;;;4954079;29;20085;-65
2022/12/21 06:09:14;;;;;;;34.03;14.93;;;;;;;;;;4922794;29;20043;-65
2022/12/21 06:11:40;;;;;;;45.53;17.63;;;;;;;;;;4953210;29;20481;-66
2022/12/21 06:14:05;;;;;;;33.03;15.70;;;;;;;;;;4953625;29;20046;-65
2022/12/21 06:16:34;;;;;;;38.43;17.23;;;;;;;;;;4938641;29;20039;-66
2022/12/21 06:19:01;;;;;;;34.47;15.63;;;;;;;;;;4922513;29;20516;-65
2022/12/21 06:21:27;;;;;;;42.43;16.37;;;;;;;;;;4937761;29;20133;-66
2022/12/21 06:23:53;;;;;;;37.73;17.10;;;;;;;;;;4937754;29;20106;-67
2022/12/21 06:26:19;;;;;;;42.27;16.40;;;;;;;;;;4922201;29;20047;-69
2022/12/21 06:28:48;;;;;;;35.20;15.20;;;;;;;;;;4938105;29;20555;-69
2022/12/21 06:31:14;;;;;;;33.57;14.93;;;;;;;;;;4922413;29;20042;-68
2022/12/21 06:33:40;;;;;;;34.67;15.07;;;;;;;;;;4954342;28;20035;-67
2022/12/21 06:36:07;;;;;;;34.33;15.60;;;;;;;;;;4953788;29;20043;-70
2022/12/21 06:38:32;;;;;;;35.50;14.53;;;;;;;;;;4937783;29;20393;-72
2022/12/21 06:40:59;;;;;;;38.73;15.80;;;;;;;;;;4953730;29;20046;-72
2022/12/21 06:43:26;;;;;;;38.73;15.53;;;;;;;;;;4937714;29;20367;-70
2022/12/21 06:45:53;;;;;;;34.37;15.20;;;;;;;;;;4937530;29;20046;-69
2022/12/21 06:48:19;;;;;;;34.53;16.07;;;;;;;;;;4906258;29;20039;-69
2022/12/21 06:50:45;;;;;;;32.23;15.23;;;;;;;;;;4937313;29;20355;-68
2022/12/21 06:53:11;;;;;;;37.83;15.73;;;;;;;;;;4938053;29;20467;-69
2022/12/21 06:55:36;;;;;;;34.97;14.37;;;;;;;;;;4922313;29;20046;-68
2022/12/21 06:58:02;;;;;;;37.10;16.33;;;;;;;;;;4938506;29;20039;-68
2022/12/21 07:00:28;;;;;;;34.33;15.13;;;;;;;;;;4921943;29;20116;-68
2022/12/21 07:02:55;;;;;;;37.97;14.77;;;;;;;;;;4953212;29;20035;-68
2022/12/21 07:05:21;;;;;;;38.17;16.07;;;;;;;;;;4954520;28;20099;-68
2022/12/21 07:07:46;;;;;;;36.83;15.70;;;;;;;;;;4954352;29;20482;-67
2022/12/21 07:10:12;;;;;;;34.27;14.70;;;;;;;;;;4922480;29;20049;-68
2022/12/21 07:12:38;;;;;;;32.37;14.43;;;;;;;;;;4920449;29;20046;-70
2022/12/21 07:15:03;;;;;;;37.53;14.20;;;;;;;;;;4937838;29;20146;-69
2022/12/21 07:17:29;;;;;;;35.07;14.17;;;;;;;;;;4953924;29;20171;-68
2022/12/21 07:19:55;;;;;;;34.97;14.50;;;;;;;;;;4937720;29;20502;-70
2022/12/21 07:22:21;;;;;;;37.73;16.40;;;;;;;;;;4937162;29;20031;-68
2022/12/21 07:24:47;;;;;;;42.70;14.93;;;;;;;;;;4922123;29;20051;-68
2022/12/21 07:27:12;;;;;;;31.27;14.63;;;;;;;;;;4938091;29;20042;-69
2022/12/21 07:29:38;;;;;;;45.30;15.40;;;;;;;;;;4921761;29;20497;-70
2022/12/21 07:32:04;;;;;;;38.83;14.23;;;;;;;;;;4921514;29;20363;-70
2022/12/21 07:34:29;;;;;;;31.13;13.73;;;;;;;;;;4937085;29;20038;-69
2022/12/21 07:36:55;;;;;;;39.80;14.77;;;;;;;;;;4937590;29;20406;-69
2022/12/21 07:39:20;;;;;;;38.33;15.33;;;;;;;;;;4937460;29;20114;-70
2022/12/21 07:41:46;;;;;;;39.97;15.43;;;;;;;;;;4921265;29;20031;-67
2022/12/21 07:44:14;;;;;;;35.07;15.40;;;;;;;;;;4937544;29;20071;-69
2022/12/21 07:46:48;;;;;;;43.63;15.63;;;;;;;;;;4953141;29;20127;-69
2022/12/21 07:49:17;;;;;;;48.97;15.50;;;;;;;;;;4937603;29;20039;-69
2022/12/21 07:51:43;;;;;;;43.90;15.93;;;;;;;;;;4919791;29;20039;-69
2022/12/21 07:54:09;;;;;;;44.63;15.53;;;;;;;;;;4921324;29;20544;-69
2022/12/21 07:56:34;;;;;;;45.90;16.30;;;;;;;;;;4921447;29;20035;-70
2022/12/21 07:59:00;;;;;;;42.00;16.73;;;;;;;;;;4921485;29;20153;-69
2022/12/21 08:01:26;;;;;;;45.97;16.67;;;;;;;;;;4936598;29;20074;-69
2022/12/21 08:03:57;;;;;;;49.20;17.03;;;;;;;;;;4952840;29;20047;-69
2022/12/21 08:06:40;;;;;;;44.47;15.57;;;;;;;;;;4952220;29;20067;-68
2022/12/21 08:09:07;;;;;;;45.63;17.13;;;;;;;;;;4936253;29;20062;-67
2022/12/21 08:11:33;;;;;;;64.87;16.73;;;;;;;;;;4934691;29;20035;-67
2022/12/21 08:13:58;;;;;;;45.93;14.73;;;;;;;;;;4920536;29;20046;-67
2022/12/21 08:16:24;;;;;;;37.43;14.60;;;;;;;;;;4953640;28;20469;-68
2022/12/21 08:18:49;;;;;;;45.23;16.57;;;;;;;;;;4920986;29;20042;-68
2022/12/21 08:21:15;;;;;;;43.33;15.40;;;;;;;;;;4953326;29;20047;-67
2022/12/21 08:23:41;;;;;;;32.17;13.43;;;;;;;;;;4953510;28;20393;-67
2022/12/21 08:26:09;;;;;;;32.73;13.47;;;;;;;;;;4955997;28;20366;-69
2022/12/21 08:28:34;;;;;;;37.97;14.80;;;;;;;;;;4924155;28;20034;-68
2022/12/21 08:31:06;;;;;;;38.10;14.17;;;;;;;;;;4955726;28;20500;-69
2022/12/21 08:33:32;;;;;;;30.03;12.77;;;;;;;;;;4955454;28;20046;-68
2022/12/21 08:35:58;;;;;;;25.63;10.03;;;;;;;;;;4955581;28;20038;-68
2022/12/21 08:38:23;;;;;;;21.30;9.70;;;;;;;;;;4939918;28;20039;-67
2022/12/21 08:40:51;;;;;;;17.23;8.53;;;;;;;;;;4955428;28;20050;-67
2022/12/21 08:43:18;;;;;;;15.33;8.40;;;;;;;;;;4965631;28;20121;-68
2022/12/21 08:45:46;;;;;;;12.47;6.37;;;;;;;;;;4940578;29;20062;-70
2022/12/21 08:48:13;;;;;;;14.50;7.93;;;;;;;;;;4938720;29;20058;-69
2022/12/21 08:50:38;;;;;;;14.70;7.40;;;;;;;;;;4920626;29;20035;-73
2022/12/21 08:53:04;;;;;;;14.40;7.80;;;;;;;;;;4920248;29;20482;-72
2022/12/21 08:55:30;;;;;;;16.23;7.97;;;;;;;;;;4935578;29;20035;-73
2022/12/21 08:57:55;;;;;;;19.53;8.73;;;;;;;;;;4936187;29;20046;-74
2022/12/21 09:00:21;;;;;;;15.97;7.33;;;;;;;;;;4936017;29;20363;-74
2022/12/21 09:02:47;;;;;;;14.97;7.40;;;;;;;;;;4920158;29;20505;-69
2022/12/21 09:05:12;;;;;;;12.83;6.63;;;;;;;;;;4935345;29;20055;-71
2022/12/21 09:07:38;;;;;;;16.03;6.93;;;;;;;;;;4935687;29;20038;-71
2022/12/21 09:10:04;;;;;;;14.97;7.30;;;;;;;;;;4952052;29;20046;-71
2022/12/21 09:12:32;;;;;;;11.07;7.30;;;;;;;;;;4935159;29;20046;-71
2022/12/21 09:14:57;;;;;;;20.93;8.33;;;;;;;;;;4951613;29;20038;-71
2022/12/21 09:17:23;;;;;;;15.37;8.10;;;;;;;;;;4920428;29;20031;-71
2022/12/21 09:19:49;;;;;;;15.73;7.57;;;;;;;;;;4951809;29;20050;-70
2022/12/21 09:22:15;;;;;;;15.70;8.83;;;;;;;;;;4936148;29;20086;-70
2022/12/21 09:24:40;;;;;;;16.40;8.73;;;;;;;;;;4933905;29;20043;-73
2022/12/21 09:27:06;;;;;;;14.77;8.30;;;;;;;;;;4918313;29;20094;-73
2022/12/21 09:29:32;;;;;;;13.97;7.03;;;;;;;;;;4935345;29;20094;-70
2022/12/21 09:31:58;;;;;;;13.57;7.30;;;;;;;;;;4934346;29;20038;-72
2022/12/21 09:34:23;;;;;;;12.60;7.13;;;;;;;;;;4919568;28;20065;-74
2022/12/21 09:36:49;;;;;;;14.90;7.67;;;;;;;;;;4923866;29;20063;-73
2022/12/21 09:39:16;;;;;;;11.93;6.93;;;;;;;;;;4924532;29;20517;-72
2022/12/21 09:41:50;;;;;;;13.33;7.70;;;;;;;;;;4939894;29;20043;-72
2022/12/21 09:44:20;;;;;;;12.80;7.30;;;;;;;;;;4924487;29;20446;-72
2022/12/21 09:46:47;;;;;;;14.97;7.63;;;;;;;;;;4956185;29;20031;-73
2022/12/21 09:49:18;;;;;;;12.23;6.63;;;;;;;;;;4939789;29;20082;-71
2022/12/21 09:51:48;;;;;;;14.40;7.37;;;;;;;;;;4935591;29;20039;-72
2022/12/21 09:54:16;;;;;;;15.33;7.63;;;;;;;;;;4922736;29;20039;-72
2022/12/21 09:56:45;;;;;;;14.53;7.20;;;;;;;;;;4939456;29;20062;-72
2022/12/21 09:59:13;;;;;;;14.87;7.63;;;;;;;;;;4940055;29;20055;-72
2022/12/21 10:01:43;;;;;;;17.63;8.03;;;;;;;;;;4939521;29;20046;-72
2022/12/21 10:04:14;;;;;;;16.30;8.07;;;;;;;;;;4923437;29;20157;-73
2022/12/21 10:07:07;;;;;;;15.27;8.07;;;;;;;;;;4923342;29;20066;-77
2022/12/21 10:09:36;;;;;;;15.73;8.03;;;;;;;;;;4910902;29;20488;-77
2022/12/21 10:12:11;;;;;;;15.97;7.77;;;;;;;;;;4924989;29;20090;-77
2022/12/21 10:14:43;;;;;;;18.07;8.50;;;;;;;;;;4926912;29;20039;-76
2022/12/21 10:17:11;;;;;;;14.80;8.23;;;;;;;;;;4923224;29;20150;-75
2022/12/21 10:19:43;;;;;;;18.97;9.40;;;;;;;;;;4923269;29;20042;-78
2022/12/21 10:22:14;;;;;;;19.67;9.40;;;;;;;;;;4923411;29;20824;-77
2022/12/21 10:24:40;;;;;;;;;;;;;;;;;;4939305;29;20059;-75
2022/12/21 10:27:35;;;;;;;21.87;9.30;;;;;;;;;;4955058;29;19910;-74
2022/12/21 10:30:02;;;;;;;20.73;9.87;;;;;;;;;;4906456;29;20066;-77
2022/12/21 10:32:32;;;;;;;21.27;9.73;;;;;;;;;;4939398;29;20074;-77
2022/12/21 10:35:12;;;;;;;17.70;8.13;;;;;;;;;;4954038;29;20038;-77
2022/12/21 10:37:38;;;;;;;18.77;8.80;;;;;;;;;;4938123;29;20063;-75
2022/12/21 10:40:04;;;;;;;16.53;8.00;;;;;;;;;;4954313;29;20051;-76
2022/12/21 10:42:37;;;;;;;14.23;7.80;;;;;;;;;;4938398;29;20039;-75
2022/12/21 10:45:04;;;;;;;21.43;8.37;;;;;;;;;;4938505;29;20113;-76
2022/12/21 10:47:29;;;;;;;14.03;7.87;;;;;;;;;;4937287;29;20039;-74
2022/12/21 10:50:14;;;;;;;22.43;7.93;;;;;;;;;;4938529;29;20039;-74
2022/12/21 10:52:47;;;;;;;15.17;8.40;;;;;;;;;;4922622;29;20922;-74
2022/12/21 10:55:16;;;;;;;19.00;8.43;;;;;;;;;;4938496;29;20051;-74
2022/12/21 10:57:41;;;;;;;17.77;8.83;;;;;;;;;;4922298;29;20065;-74
2022/12/21 11:00:26;;;;;;;22.40;8.17;;;;;;;;;;4922516;29;20413;-75
2022/12/21 11:02:53;;;;;;;18.77;8.90;;;;;;;;;;4938267;29;20050;-75
2022/12/21 11:05:27;;;;;;;17.63;8.60;;;;;;;;;;4939013;29;20059;-76
2022/12/21 11:07:53;;;;;;;25.40;9.00;;;;;;;;;;4922505;29;20397;-76
2022/12/21 11:10:24;;;;;;;23.07;9.13;;;;;;;;;;4937992;29;20035;-74
2022/12/21 11:12:51;;;;;;;19.70;8.90;;;;;;;;;;4953562;29;20054;-72
2022/12/21 11:15:19;;;;;;;16.97;8.10;;;;;;;;;;4938347;29;20043;-74
2022/12/21 11:17:45;;;;;;;21.13;9.10;;;;;;;;;;4937538;29;20066;-75
2022/12/21 11:20:16;;;;;;;20.07;9.23;;;;;;;;;;4938050;29;20082;-75
2022/12/21 11:22:44;;;;;;;15.17;8.77;;;;;;;;;;4954000;29;20037;-76
2022/12/21 11:25:30;;;;;;;22.37;9.93;;;;;;;;;;4938131;29;20047;-75
2022/12/21 11:28:00;;;;;;;19.80;9.37;;;;;;;;;;4937926;29;20039;-75
2022/12/21 11:30:27;;;;;;;23.95;10.20;;;;;;;;;;4921287;29;20027;-73
2022/12/21 11:32:54;;;;;;;15.13;8.97;;;;;;;;;;4936178;29;20047;-78
2022/12/21 11:35:21;;;;;;;18.67;9.33;;;;;;;;;;4920296;29;20093;-76
2022/12/21 11:38:07;;;;;;;20.03;8.93;;;;;;;;;;4936817;29;20059;-79
2022/12/21 11:40:33;;;;;;;16.47;8.10;;;;;;;;;;4920326;29;20051;-78
2022/12/21 11:42:59;;;;;;;18.77;9.53;;;;;;;;;;4954596;28;20047;-79
2022/12/21 11:45:34;;;;;;;17.37;7.90;;;;;;;;;;4953473;29;20039;-76
2022/12/21 11:48:06;;;;;;;15.27;8.07;;;;;;;;;;4937817;29;20493;-82
2022/12/21 11:50:35;;;;;;;15.90;8.60;;;;;;;;;;4921757;29;20051;-80
2022/12/21 11:53:19;;;;;;;17.20;8.37;;;;;;;;;;4936395;29;20402;-76
2022/12/21 11:56:05;;;;;;;14.70;8.00;;;;;;;;;;4919505;29;20123;-80
2022/12/21 11:58:40;;;;;;;16.47;8.20;;;;;;;;;;4901988;29;20048;-80
2022/12/21 12:01:24;;;;;;;19.87;9.10;;;;;;;;;;4934422;29;20043;-81
2022/12/21 12:03:59;;;;;;;16.40;8.80;;;;;;;;;;4902376;29;20176;-77
2022/12/21 12:06:40;;;;;;;17.30;8.77;;;;;;;;;;4902498;29;20051;-75
2022/12/21 12:09:17;;;;;;;19.50;8.90;;;;;;;;;;4902526;29;20071;-79
2022/12/21 12:11:58;;;;;;;17.90;8.27;;;;;;;;;;4901345;29;20456;-76
2022/12/21 12:14:27;;;;;;;14.97;7.53;;;;;;;;;;4917970;29;20138;-77
2022/12/21 12:17:09;;;;;;;14.83;7.93;;;;;;;;;;4902203;29;20501;-74
2022/12/21 12:19:44;;;;;;;16.57;8.73;;;;;;;;;;4902223;29;20039;-76
2022/12/21 12:22:12;;;;;;;14.30;7.87;;;;;;;;;;4902366;29;20040;-78
2022/12/21 12:24:57;;;;;;;13.93;7.67;;;;;;;;;;4917600;29;20376;-79
2022/12/21 12:27:41;;;;;;;14.67;8.60;;;;;;;;;;4901897;29;20039;-70
2022/12/21 12:30:08;;;;;;;16.03;8.57;;;;;;;;;;4900921;29;20039;-77
2022/12/21 12:33:09;;;;;;;18.00;9.13;;;;;;;;;;4899789;29;20083;-78
2022/12/21 12:35:35;;;;;;;;;;;;;;;;;;4845925;29;20041;-78
2022/12/21 12:38:14;;;;;;;21.30;8.00;;;;;;;;;;4895539;29;20435;-79
2022/12/21 12:40:58;;;;;;;17.50;8.53;;;;;;;;;;4917291;29;20453;-79
2022/12/21 12:43:41;;;;;;;23.17;9.83;;;;;;;;;;4919849;29;20061;-79
2022/12/21 12:46:12;;;;;;;17.70;8.97;;;;;;;;;;4920465;29;20138;-77
2022/12/21 12:48:54;;;;;;;16.77;8.27;;;;;;;;;;4920519;29;20126;-76
2022/12/21 12:51:31;;;;;;;23.93;9.97;;;;;;;;;;4920769;29;20268;-76
2022/12/21 12:53:57;;;;;;;19.50;9.87;;;;;;;;;;4920618;29;20031;-76
2022/12/21 12:56:42;;;;;;;20.97;9.17;;;;;;;;;;4920538;29;20101;-73
2022/12/21 12:59:08;;;;;;;17.20;9.60;;;;;;;;;;4936349;29;20127;-74
2022/12/21 13:01:50;;;;;;;21.07;11.03;;;;;;;;;;4920503;29;20138;-76
2022/12/21 13:04:33;;;;;;;19.70;9.97;;;;;;;;;;4936395;29;20129;-76
2022/12/21 13:07:07;;;;;;;16.80;9.77;;;;;;;;;;4952612;29;20061;-76
2022/12/21 13:09:40;;;;;;;28.70;10.27;;;;;;;;;;4935948;29;20121;-79
2022/12/21 13:12:05;;;;;;;21.43;10.10;;;;;;;;;;4919416;29;20046;-79
2022/12/21 13:14:38;;;;;;;19.33;9.67;;;;;;;;;;4920747;29;20051;-77
2022/12/21 13:17:13;;;;;;;20.13;9.63;;;;;;;;;;4942561;29;20041;-76
2022/12/21 13:19:40;;;;;;;23.93;9.80;;;;;;;;;;4925719;29;20043;-78
2022/12/21 13:22:08;;;;;;;17.60;9.47;;;;;;;;;;4955463;29;20608;-77
2022/12/21 13:25:01;;;;;;;19.20;10.40;;;;;;;;;;4937217;29;20047;-78
2022/12/21 13:27:34;;;;;;;19.53;9.90;;;;;;;;;;4915708;29;20047;-78
2022/12/21 13:29:59;;;;;;;;;;;;;;;;;;4921155;29;20039;-78
2022/12/21 13:32:31;;;;;;;19.33;10.13;;;;;;;;;;4920485;29;19910;-75
2022/12/21 13:35:02;;;;;;;21.07;10.43;;;;;;;;;;4920281;29;20066;-78
2022/12/21 13:37:28;;;;;;;22.47;10.80;;;;;;;;;;4919874;29;20035;-76
2022/12/21 13:40:09;;;;;;;18.47;9.63;;;;;;;;;;4920033;29;20049;-78
2022/12/21 13:42:35;;;;;;;;;;;;;;;;;;4919617;29;20058;-75
2022/12/21 13:45:22;;;;;;;17.77;9.00;;;;;;;;;;4935510;29;19930;-75
2022/12/21 13:47:49;;;;;;;17.57;9.63;;;;;;;;;;4919907;29;20042;-76
2022/12/21 13:50:25;;;;;;;19.50;10.27;;;;;;;;;;4934378;29;20047;-74
2022/12/21 13:53:10;;;;;;;16.33;9.37;;;;;;;;;;4935644;29;20186;-79
2022/12/21 13:55:36;;;;;;;20.03;9.57;;;;;;;;;;4919344;29;20153;-75
2022/12/21 13:58:11;;;;;;;23.67;10.67;;;;;;;;;;4935576;29;20481;-74
2022/12/21 14:00:38;;;;;;;20.33;10.30;;;;;;;;;;4935374;29;20114;-74
2022/12/21 14:03:14;;;;;;;20.80;10.10;;;;;;;;;;4919958;29;20039;-73
2022/12/21 14:05:57;;;;;;;17.07;8.73;;;;;;;;;;4919872;29;20054;-74
2022/12/21 14:08:28;;;;;;;18.37;9.93;;;;;;;;;;4935649;29;20167;-77
2022/12/21 14:10:57;;;;;;;19.33;9.63;;;;;;;;;;4920128;29;20070;-74
2022/12/21 14:13:23;;;;;;;18.13;9.27;;;;;;;;;;4919274;29;20454;-75
2022/12/21 14:15:58;;;;;;;21.63;10.67;;;;;;;;;;4919443;29;20101;-75
2022/12/21 14:18:30;;;;;;;21.93;11.00;;;;;;;;;;4951582;29;20050;-74
2022/12/21 14:21:06;;;;;;;17.67;9.70;;;;;;;;;;4936136;28;20036;-72
2022/12/21 14:23:33;;;;;;;23.60;10.30;;;;;;;;;;4923059;29;20138;-74
2022/12/21 14:25:59;;;;;;;20.47;10.43;;;;;;;;;;4954621;29;20031;-73
2022/12/21 14:28:27;;;;;;;21.93;10.83;;;;;;;;;;4939459;29;20050;-75
2022/12/21 14:30:52;;;;;;;22.07;10.97;;;;;;;;;;4939370;29;20042;-76
2022/12/21 14:33:21;;;;;;;22.97;10.97;;;;;;;;;;4922082;29;20039;-74
2022/12/21 14:36:06;;;;;;;21.60;10.90;;;;;;;;;;4918142;29;20040;-82
2022/12/21 14:38:33;;;;;;;22.77;11.07;;;;;;;;;;4935168;29;20521;-74
2022/12/21 14:40:58;;;;;;;20.37;11.07;;;;;;;;;;4919241;29;20031;-79
2022/12/21 14:43:25;;;;;;;21.43;10.53;;;;;;;;;;4935079;29;20077;-76
2022/12/21 14:45:51;;;;;;;32.83;11.87;;;;;;;;;;4934955;29;20043;-75
2022/12/21 14:48:29;;;;;;;23.63;10.70;;;;;;;;;;4919853;29;20039;-73
2022/12/21 14:50:58;;;;;;;26.37;10.57;;;;;;;;;;4917856;29;20039;-74
2022/12/21 14:53:26;;;;;;;23.70;10.50;;;;;;;;;;4920451;29;20397;-75